»·PEaware :: N243SE CL46-KEMT

N243SE :: CL46-KEMT

FLIGHT INFORMATION

Flight Status: Arrived
Operator: Privately registered:
United States
More flights under this callsign
Pilot: Shane O. (12819)
Aircraft: Unknown
(DA40)
More flights by this aircraft type
Origin: CL46 Quail Lake Sky Park
Canada
Destination: KEMT El Monte
United States
More flights between these airports :: More routes between these airports
Route: +VNY V186 ITSME V264 POM
File this flight plan on PilotEdge
Remarks: FSE
Altitude:
(Current/Filed)
5,000ft
Speed:
(Current/Filed)
140kts
Departed: 22-Sep-18 07:03 PM
Arrived: 22-Sep-18 07:36 PM
Distance/Time
Traveled:
54nm/0:33
Distance/Time
To Go:
Arrived

Flight Plot

Page will automatically refresh every two minutes.

Flight plan parsing failed; only flown route is shown


Map Options




Map Legend


Flown Route
Filed Route
Departure Airport
Arrival Airport
Navaid (VOR, NDB)
Fix

Horizontal Profiles

Position Reports

Time Latitude Longitude Heading Altitude Ground
Speed
22-Sep-18 18:59 34.767993 -118.727905 274 3373ft 0kts
22-Sep-18 19:00 34.767993 -118.727906 273 3373ft 0kts
22-Sep-18 19:01 34.767993 -118.727908 273 3373ft 0kts
22-Sep-18 19:02 34.767994 -118.727909 273 3373ft 0kts
22-Sep-18 19:03 34.767994 -118.727911 273 3373ft 0kts
22-Sep-18 19:04 34.767994 -118.727913 273 3373ft 0kts
22-Sep-18 19:05 34.768766 -118.740045 275 3578ft 79kts
22-Sep-18 19:06 34.792591 -118.745069 2 4369ft 104kts
22-Sep-18 19:07 34.822284 -118.737097 11 5019ft 122kts
22-Sep-18 19:08 34.851211 -118.714731 105 4980ft 141kts
22-Sep-18 19:09 34.817777 -118.705177 182 5011ft 134kts
22-Sep-18 19:10 34.779597 -118.707743 175 5136ft 126kts
22-Sep-18 19:11 34.750734 -118.697582 163 6141ft 99kts
22-Sep-18 19:12 34.722998 -118.687083 167 6876ft 117kts
22-Sep-18 19:13 34.690501 -118.680392 172 6651ft 130kts
22-Sep-18 19:14 34.655677 -118.670908 169 7008ft 134kts
22-Sep-18 19:15 34.617823 -118.660529 169 6956ft 135kts
22-Sep-18 19:16 34.582278 -118.641586 158 6468ft 147kts
22-Sep-18 19:17 34.544050 -118.620899 158 5771ft 149kts
22-Sep-18 19:18 34.505421 -118.600146 158 5065ft 150kts
22-Sep-18 19:19 34.468062 -118.582742 166 4936ft 136kts
22-Sep-18 19:20 34.430657 -118.569951 166 4993ft 140kts
22-Sep-18 19:21 34.392088 -118.556847 166 4970ft 141kts
22-Sep-18 19:22 34.353888 -118.543855 166 4958ft 141kts
22-Sep-18 19:23 34.315394 -118.530998 165 4928ft 139kts
22-Sep-18 19:24 34.279231 -118.515304 153 4944ft 140kts
22-Sep-18 19:25 34.243100 -118.495227 141 4953ft 140kts
22-Sep-18 19:26 34.216214 -118.459647 129 4922ft 143kts
22-Sep-18 19:27 34.200698 -118.415100 114 4950ft 144kts
22-Sep-18 19:28 34.186351 -118.368555 112 4907ft 142kts
22-Sep-18 19:29 34.172927 -118.324171 111 4937ft 142kts
22-Sep-18 19:30 34.159096 -118.278360 111 4921ft 143kts
22-Sep-18 19:31 34.145589 -118.233267 112 5001ft 140kts
22-Sep-18 19:32 34.132094 -118.188490 112 5014ft 142kts
22-Sep-18 19:33 34.116680 -118.140322 112 4321ft 158kts
22-Sep-18 19:34 34.100824 -118.090227 106 3368ft 161kts
22-Sep-18 19:35 34.088174 -118.046562 113 1995ft 107kts
22-Sep-18 19:36 34.091107 -118.016696 22 1228ft 101kts
22-Sep-18 19:37 34.102297 -118.028009 181 783ft 90kts
22-Sep-18 19:38 34.084919 -118.035476 204 299ft 32kts
22-Sep-18 19:39 34.081697 -118.036570 27 299ft 18kts
22-Sep-18 19:40 34.084798 -118.033158 115 299ft 3kts
22-Sep-18 19:41 34.084786 -118.033129 114 299ft 0kts
22-Sep-18 19:42 34.084786 -118.033129 114 299ft 0kts
22-Sep-18 19:43 34.084786 -118.033129 114 299ft 0kts
22-Sep-18 19:44 34.084786 -118.033129 114 299ft 0kts
22-Sep-18 19:45 34.084786 -118.033129 114 299ft 0kts
22-Sep-18 19:46 34.084786 -118.033129 114 299ft 0kts
22-Sep-18 19:47 34.084786 -118.033129 114 299ft 0kts
22-Sep-18 19:48 34.084786 -118.033129 114 299ft 0kts
22-Sep-18 19:49 34.084786 -118.033129 114 299ft 0kts
22-Sep-18 19:50 34.084786 -118.033128 114 299ft 0kts
22-Sep-18 19:51 34.085071 -118.033856 295 299ft 0kts
22-Sep-18 19:52 34.085472 -118.034316 5 299ft 6kts

Navigation Log

Ident Type
Flight plan parsing failed, navigation log unavailable